sensor_id;sensor_type;location;lat;lon;timestamp;pressure;altitude;pressure_sealevel;temperature;humidity
16690;BME280;8458;52.220;9.884;2023-07-13T00:01:26;100527.19;;;21.52;67.86
16690;BME280;8458;52.220;9.884;2023-07-13T00:03:54;100524.53;;;21.47;68.06
16690;BME280;8458;52.220;9.884;2023-07-13T00:06:21;100524.72;;;21.42;68.54
16690;BME280;8458;52.220;9.884;2023-07-13T00:08:47;100528.53;;;21.46;68.40
16690;BME280;8458;52.220;9.884;2023-07-13T00:11:15;100529.56;;;21.41;68.63
16690;BME280;8458;52.220;9.884;2023-07-13T00:13:42;100533.41;;;21.37;68.83
16690;BME280;8458;52.220;9.884;2023-07-13T00:16:10;100537.38;;;21.36;69.09
16690;BME280;8458;52.220;9.884;2023-07-13T00:18:39;100543.50;;;21.38;69.22
16690;BME280;8458;52.220;9.884;2023-07-13T00:21:07;100534.34;;;21.41;68.96
16690;BME280;8458;52.220;9.884;2023-07-13T00:23:35;100551.94;;;21.38;69.19
16690;BME280;8458;52.220;9.884;2023-07-13T00:26:03;100547.84;;;21.35;69.39
16690;BME280;8458;52.220;9.884;2023-07-13T00:28:29;100541.34;;;21.35;69.82
16690;BME280;8458;52.220;9.884;2023-07-13T00:30:56;100542.56;;;21.34;69.85
16690;BME280;8458;52.220;9.884;2023-07-13T00:33:22;100541.22;;;21.31;69.87
16690;BME280;8458;52.220;9.884;2023-07-13T00:35:49;100541.09;;;21.27;69.78
16690;BME280;8458;52.220;9.884;2023-07-13T00:38:17;100541.91;;;21.28;69.53
16690;BME280;8458;52.220;9.884;2023-07-13T00:40:44;100546.22;;;21.25;69.39
16690;BME280;8458;52.220;9.884;2023-07-13T00:43:13;100537.78;;;21.25;69.73
16690;BME280;8458;52.220;9.884;2023-07-13T00:46:13;100540.66;;;21.17;69.65
16690;BME280;8458;52.220;9.884;2023-07-13T00:48:40;100543.13;;;21.18;69.82
16690;BME280;8458;52.220;9.884;2023-07-13T00:51:10;100545.44;;;21.16;69.79
16690;BME280;8458;52.220;9.884;2023-07-13T00:53:39;100535.84;;;21.17;69.48
16690;BME280;8458;52.220;9.884;2023-07-13T00:56:05;100535.50;;;21.19;69.74
16690;BME280;8458;52.220;9.884;2023-07-13T00:58:33;100532.53;;;21.15;69.89
16690;BME280;8458;52.220;9.884;2023-07-13T01:00:59;100529.50;;;21.20;69.93
16690;BME280;8458;52.220;9.884;2023-07-13T01:03:26;100535.16;;;21.20;69.80
16690;BME280;8458;52.220;9.884;2023-07-13T01:05:53;100530.53;;;21.16;70.00
16690;BME280;8458;52.220;9.884;2023-07-13T01:08:20;100527.72;;;21.16;70.03
16690;BME280;8458;52.220;9.884;2023-07-13T01:10:57;100527.91;;;21.10;70.34
16690;BME280;8458;52.220;9.884;2023-07-13T01:13:25;100528.94;;;21.06;70.38
16690;BME280;8458;52.220;9.884;2023-07-13T01:15:52;100534.56;;;21.06;70.33
16690;BME280;8458;52.220;9.884;2023-07-13T01:18:23;100536.28;;;20.98;70.52
16690;BME280;8458;52.220;9.884;2023-07-13T01:20:53;100528.81;;;21.02;70.27
16690;BME280;8458;52.220;9.884;2023-07-13T01:23:20;100539.22;;;21.02;70.36
16690;BME280;8458;52.220;9.884;2023-07-13T01:25:46;100534.47;;;20.93;70.46
16690;BME280;8458;52.220;9.884;2023-07-13T01:28:13;100535.63;;;20.92;70.53
16690;BME280;8458;52.220;9.884;2023-07-13T01:30:43;100532.34;;;20.90;70.63
16690;BME280;8458;52.220;9.884;2023-07-13T01:33:11;100535.34;;;20.85;70.56
16690;BME280;8458;52.220;9.884;2023-07-13T01:35:38;100538.50;;;20.84;70.56
16690;BME280;8458;52.220;9.884;2023-07-13T01:38:06;100539.69;;;20.74;70.61
16690;BME280;8458;52.220;9.884;2023-07-13T01:40:34;100549.31;;;20.73;70.70
16690;BME280;8458;52.220;9.884;2023-07-13T01:43:01;100550.81;;;20.70;70.58
16690;BME280;8458;52.220;9.884;2023-07-13T01:45:28;100546.66;;;20.68;70.74
16690;BME280;8458;52.220;9.884;2023-07-13T01:47:54;100550.31;;;20.59;70.52
16690;BME280;8458;52.220;9.884;2023-07-13T01:50:21;100551.00;;;20.56;70.54
16690;BME280;8458;52.220;9.884;2023-07-13T01:52:47;100547.38;;;20.47;70.74
16690;BME280;8458;52.220;9.884;2023-07-13T01:55:15;100551.03;;;20.39;70.67
16690;BME280;8458;52.220;9.884;2023-07-13T01:57:42;100545.22;;;20.35;70.64
16690;BME280;8458;52.220;9.884;2023-07-13T02:00:10;100548.91;;;20.36;70.61
16690;BME280;8458;52.220;9.884;2023-07-13T02:02:37;100549.91;;;20.31;70.17
16690;BME280;8458;52.220;9.884;2023-07-13T02:05:04;100552.88;;;20.26;70.02
16690;BME280;8458;52.220;9.884;2023-07-13T02:07:31;100555.53;;;20.22;69.84
16690;BME280;8458;52.220;9.884;2023-07-13T02:09:57;100548.41;;;20.16;69.71
16690;BME280;8458;52.220;9.884;2023-07-13T02:12:25;100554.06;;;20.16;69.41
16690;BME280;8458;52.220;9.884;2023-07-13T02:14:52;100555.03;;;20.03;69.35
16690;BME280;8458;52.220;9.884;2023-07-13T02:17:18;100548.41;;;20.08;69.18
16690;BME280;8458;52.220;9.884;2023-07-13T02:19:45;100546.78;;;19.98;68.95
16690;BME280;8458;52.220;9.884;2023-07-13T02:22:11;100546.78;;;19.98;68.90
16690;BME280;8458;52.220;9.884;2023-07-13T02:24:37;100552.25;;;19.94;68.71
16690;BME280;8458;52.220;9.884;2023-07-13T02:27:04;100556.38;;;19.97;68.79
16690;BME280;8458;52.220;9.884;2023-07-13T02:29:32;100551.09;;;19.86;68.56
16690;BME280;8458;52.220;9.884;2023-07-13T02:31:59;100553.56;;;19.88;67.94
16690;BME280;8458;52.220;9.884;2023-07-13T02:34:25;100554.41;;;19.88;68.17
16690;BME280;8458;52.220;9.884;2023-07-13T02:36:52;100557.38;;;19.83;67.90
16690;BME280;8458;52.220;9.884;2023-07-13T02:39:18;100562.00;;;19.79;68.44
16690;BME280;8458;52.220;9.884;2023-07-13T02:41:45;100563.97;;;19.70;68.81
16690;BME280;8458;52.220;9.884;2023-07-13T02:44:12;100567.59;;;19.62;69.11
16690;BME280;8458;52.220;9.884;2023-07-13T02:46:40;100554.69;;;19.61;68.93
16690;BME280;8458;52.220;9.884;2023-07-13T02:49:07;100556.84;;;19.55;69.33
16690;BME280;8458;52.220;9.884;2023-07-13T02:51:34;100563.13;;;19.52;69.25
16690;BME280;8458;52.220;9.884;2023-07-13T02:54:01;100566.06;;;19.47;69.57
16690;BME280;8458;52.220;9.884;2023-07-13T02:56:29;100565.91;;;19.43;69.63
16690;BME280;8458;52.220;9.884;2023-07-13T02:58:57;100575.34;;;19.47;69.93
16690;BME280;8458;52.220;9.884;2023-07-13T03:01:23;100580.47;;;19.45;70.00
16690;BME280;8458;52.220;9.884;2023-07-13T03:03:52;100570.03;;;19.37;70.15
16690;BME280;8458;52.220;9.884;2023-07-13T03:06:18;100566.88;;;19.30;70.33
16690;BME280;8458;52.220;9.884;2023-07-13T03:08:46;100571.50;;;19.26;70.76
16690;BME280;8458;52.220;9.884;2023-07-13T03:11:15;100573.13;;;19.27;70.55
16690;BME280;8458;52.220;9.884;2023-07-13T03:13:42;100565.03;;;19.25;70.60
16690;BME280;8458;52.220;9.884;2023-07-13T03:16:10;100563.41;;;19.24;70.74
16690;BME280;8458;52.220;9.884;2023-07-13T03:18:37;100554.44;;;19.22;70.45
16690;BME280;8458;52.220;9.884;2023-07-13T03:21:06;100558.75;;;19.28;70.41
16690;BME280;8458;52.220;9.884;2023-07-13T03:23:32;100556.16;;;19.32;70.10
16690;BME280;8458;52.220;9.884;2023-07-13T03:26:03;100566.53;;;19.31;70.29
16690;BME280;8458;52.220;9.884;2023-07-13T03:28:30;100565.22;;;19.29;70.17
16690;BME280;8458;52.220;9.884;2023-07-13T03:31:01;100563.06;;;19.26;70.18
16690;BME280;8458;52.220;9.884;2023-07-13T03:33:28;100562.88;;;19.22;70.29
16690;BME280;8458;52.220;9.884;2023-07-13T03:35:55;100570.31;;;19.27;69.93
16690;BME280;8458;52.220;9.884;2023-07-13T03:38:23;100569.84;;;19.25;69.73
16690;BME280;8458;52.220;9.884;2023-07-13T03:40:50;100575.78;;;19.23;70.03
16690;BME280;8458;52.220;9.884;2023-07-13T03:43:17;100561.72;;;19.23;69.71
16690;BME280;8458;52.220;9.884;2023-07-13T03:45:43;100576.75;;;19.19;69.85
16690;BME280;8458;52.220;9.884;2023-07-13T03:48:09;100579.19;;;19.11;70.23
16690;BME280;8458;52.220;9.884;2023-07-13T03:50:36;100582.53;;;19.13;70.45
16690;BME280;8458;52.220;9.884;2023-07-13T03:53:03;100587.19;;;19.18;70.30
16690;BME280;8458;52.220;9.884;2023-07-13T03:55:31;100580.72;;;19.17;70.09
16690;BME280;8458;52.220;9.884;2023-07-13T03:57:59;100576.91;;;19.13;70.20
16690;BME280;8458;52.220;9.884;2023-07-13T04:00:26;100582.88;;;19.21;70.07
16690;BME280;8458;52.220;9.884;2023-07-13T04:02:52;100575.94;;;19.18;69.87
16690;BME280;8458;52.220;9.884;2023-07-13T04:05:19;100588.81;;;19.19;69.90
16690;BME280;8458;52.220;9.884;2023-07-13T04:07:45;100576.94;;;19.22;69.96
16690;BME280;8458;52.220;9.884;2023-07-13T04:10:12;100577.13;;;19.26;69.91
16690;BME280;8458;52.220;9.884;2023-07-13T04:12:39;100577.78;;;19.23;70.10
16690;BME280;8458;52.220;9.884;2023-07-13T04:15:07;100573.47;;;19.16;69.58
16690;BME280;8458;52.220;9.884;2023-07-13T04:17:34;100572.72;;;19.02;69.94
16690;BME280;8458;52.220;9.884;2023-07-13T04:20:00;100581.47;;;19.01;70.12
16690;BME280;8458;52.220;9.884;2023-07-13T04:22:27;100582.97;;;18.98;70.22
16690;BME280;8458;52.220;9.884;2023-07-13T04:24:53;100580.13;;;18.89;70.65
16690;BME280;8458;52.220;9.884;2023-07-13T04:27:20;100581.69;;;18.81;71.16
16690;BME280;8458;52.220;9.884;2023-07-13T04:29:48;100580.84;;;18.72;71.82
16690;BME280;8458;52.220;9.884;2023-07-13T04:32:14;100582.50;;;18.73;72.02
16690;BME280;8458;52.220;9.884;2023-07-13T04:34:41;100588.13;;;18.73;72.14
16690;BME280;8458;52.220;9.884;2023-07-13T04:37:07;100594.28;;;18.84;71.81
16690;BME280;8458;52.220;9.884;2023-07-13T04:39:33;100579.94;;;18.86;72.20
16690;BME280;8458;52.220;9.884;2023-07-13T04:42:00;100582.59;;;18.91;71.79
16690;BME280;8458;52.220;9.884;2023-07-13T04:44:26;100591.34;;;18.89;71.71
16690;BME280;8458;52.220;9.884;2023-07-13T04:46:54;100591.72;;;18.96;71.95
16690;BME280;8458;52.220;9.884;2023-07-13T04:49:20;100594.34;;;18.93;72.33
16690;BME280;8458;52.220;9.884;2023-07-13T04:51:47;100598.50;;;18.95;72.40
16690;BME280;8458;52.220;9.884;2023-07-13T04:54:13;100597.53;;;19.00;72.01
16690;BME280;8458;52.220;9.884;2023-07-13T04:56:40;100593.56;;;19.01;71.80
16690;BME280;8458;52.220;9.884;2023-07-13T04:59:06;100602.63;;;18.98;72.66
16690;BME280;8458;52.220;9.884;2023-07-13T05:01:33;100602.50;;;19.03;72.63
16690;BME280;8458;52.220;9.884;2023-07-13T05:04:00;100606.16;;;19.12;72.46
16690;BME280;8458;52.220;9.884;2023-07-13T05:06:27;100611.78;;;19.12;72.75
16690;BME280;8458;52.220;9.884;2023-07-13T05:08:55;100613.94;;;19.15;72.59
16690;BME280;8458;52.220;9.884;2023-07-13T05:11:22;100611.63;;;19.09;72.85
16690;BME280;8458;52.220;9.884;2023-07-13T05:13:48;100611.63;;;19.09;73.02
16690;BME280;8458;52.220;9.884;2023-07-13T05:16:15;100621.69;;;19.10;73.14
16690;BME280;8458;52.220;9.884;2023-07-13T05:18:41;100621.72;;;19.19;73.02
16690;BME280;8458;52.220;9.884;2023-07-13T05:21:10;100632.81;;;19.24;73.18
16690;BME280;8458;52.220;9.884;2023-07-13T05:23:37;100637.13;;;19.30;73.67
16690;BME280;8458;52.220;9.884;2023-07-13T05:26:04;100628.38;;;19.31;73.69
16690;BME280;8458;52.220;9.884;2023-07-13T05:28:31;100631.56;;;19.39;73.45
16690;BME280;8458;52.220;9.884;2023-07-13T05:30:58;100633.53;;;19.38;73.71
16690;BME280;8458;52.220;9.884;2023-07-13T05:33:25;100642.66;;;19.52;73.98
16690;BME280;8458;52.220;9.884;2023-07-13T05:35:52;100642.66;;;19.52;73.50
16690;BME280;8458;52.220;9.884;2023-07-13T05:38:20;100648.66;;;19.60;73.07
16690;BME280;8458;52.220;9.884;2023-07-13T05:40:47;100653.63;;;19.63;72.43
16690;BME280;8458;52.220;9.884;2023-07-13T05:43:14;100654.28;;;19.60;72.03
16690;BME280;8458;52.220;9.884;2023-07-13T05:45:41;100642.19;;;19.59;71.03
16690;BME280;8458;52.220;9.884;2023-07-13T05:48:08;100645.31;;;19.58;71.56
16690;BME280;8458;52.220;9.884;2023-07-13T05:50:34;100651.16;;;19.61;71.82
16690;BME280;8458;52.220;9.884;2023-07-13T05:53:01;100655.25;;;19.64;71.50
16690;BME280;8458;52.220;9.884;2023-07-13T05:55:29;100652.31;;;19.69;71.76
16690;BME280;8458;52.220;9.884;2023-07-13T05:57:55;100657.66;;;19.79;71.46
16690;BME280;8458;52.220;9.884;2023-07-13T06:00:23;100662.63;;;19.82;71.16
16690;BME280;8458;52.220;9.884;2023-07-13T06:02:49;100657.34;;;19.90;70.74
16690;BME280;8458;52.220;9.884;2023-07-13T06:05:16;100666.28;;;19.92;71.15
16690;BME280;8458;52.220;9.884;2023-07-13T06:07:43;100659.84;;;19.91;70.17
16690;BME280;8458;52.220;9.884;2023-07-13T06:10:10;100660.00;;;19.95;70.80
16690;BME280;8458;52.220;9.884;2023-07-13T06:12:38;100665.31;;;20.05;71.12
16690;BME280;8458;52.220;9.884;2023-07-13T06:15:05;100667.78;;;20.06;70.14
16690;BME280;8458;52.220;9.884;2023-07-13T06:17:32;100665.13;;;20.01;69.88
16690;BME280;8458;52.220;9.884;2023-07-13T06:19:59;100658.19;;;20.08;70.46
16690;BME280;8458;52.220;9.884;2023-07-13T06:22:25;100666.63;;;20.16;70.05
16690;BME280;8458;52.220;9.884;2023-07-13T06:24:52;100664.31;;;20.18;68.79
16690;BME280;8458;52.220;9.884;2023-07-13T06:27:18;100663.66;;;20.04;68.12
16690;BME280;8458;52.220;9.884;2023-07-13T06:29:46;100668.78;;;20.02;67.53
16690;BME280;8458;52.220;9.884;2023-07-13T06:32:13;100659.34;;;19.98;66.75
16690;BME280;8458;52.220;9.884;2023-07-13T06:34:39;100663.94;;;19.94;65.93
16690;BME280;8458;52.220;9.884;2023-07-13T06:37:06;100661.47;;;19.92;66.18
16690;BME280;8458;52.220;9.884;2023-07-13T06:39:33;100668.91;;;19.97;66.57
16690;BME280;8458;52.220;9.884;2023-07-13T06:41:59;100668.91;;;19.97;66.16
16690;BME280;8458;52.220;9.884;2023-07-13T06:44:26;100669.44;;;19.99;66.13
16690;BME280;8458;52.220;9.884;2023-07-13T06:46:54;100664.59;;;19.91;66.11
16690;BME280;8458;52.220;9.884;2023-07-13T06:49:20;100662.97;;;19.90;65.62
16690;BME280;8458;52.220;9.884;2023-07-13T06:51:47;100666.94;;;19.88;65.58
16690;BME280;8458;52.220;9.884;2023-07-13T06:54:13;100673.91;;;19.91;65.53
16690;BME280;8458;52.220;9.884;2023-07-13T06:56:40;100665.88;;;19.67;65.32
16690;BME280;8458;52.220;9.884;2023-07-13T06:59:06;100674.53;;;19.39;65.67
16690;BME280;8458;52.220;9.884;2023-07-13T07:01:33;100668.25;;;19.33;65.27
16690;BME280;8458;52.220;9.884;2023-07-13T07:04:00;100678.31;;;19.34;65.89
16690;BME280;8458;52.220;9.884;2023-07-13T07:06:27;100684.28;;;19.33;65.79
16690;BME280;8458;52.220;9.884;2023-07-13T07:08:53;100683.63;;;19.36;64.97
16690;BME280;8458;52.220;9.884;2023-07-13T07:11:22;100673.41;;;19.40;65.10
16690;BME280;8458;52.220;9.884;2023-07-13T07:13:49;100680.16;;;19.30;64.85
16690;BME280;8458;52.220;9.884;2023-07-13T07:16:16;100683.41;;;19.24;65.88
16690;BME280;8458;52.220;9.884;2023-07-13T07:18:43;100689.00;;;19.15;65.89
16690;BME280;8458;52.220;9.884;2023-07-13T07:21:12;100687.88;;;19.25;65.69
16690;BME280;8458;52.220;9.884;2023-07-13T07:23:39;100675.63;;;19.21;65.68
16690;BME280;8458;52.220;9.884;2023-07-13T07:26:05;100681.25;;;19.21;66.50
16690;BME280;8458;52.220;9.884;2023-07-13T07:28:34;100676.63;;;19.25;65.26
16690;BME280;8458;52.220;9.884;2023-07-13T07:31:00;100675.81;;;19.24;65.63
16690;BME280;8458;52.220;9.884;2023-07-13T07:33:27;100674.97;;;19.24;65.09
16690;BME280;8458;52.220;9.884;2023-07-13T07:35:53;100680.97;;;19.31;65.76
16690;BME280;8458;52.220;9.884;2023-07-13T07:38:21;100679.00;;;19.40;65.26
16690;BME280;8458;52.220;9.884;2023-07-13T07:40:47;100684.00;;;19.43;65.80
16690;BME280;8458;52.220;9.884;2023-07-13T07:43:14;100686.66;;;19.48;66.26
16690;BME280;8458;52.220;9.884;2023-07-13T07:45:40;100683.38;;;19.64;65.46
16690;BME280;8458;52.220;9.884;2023-07-13T07:48:07;100689.00;;;19.64;64.70
16690;BME280;8458;52.220;9.884;2023-07-13T07:50:35;100675.81;;;19.73;64.13
16690;BME280;8458;52.220;9.884;2023-07-13T07:53:02;100686.28;;;19.81;63.90
16690;BME280;8458;52.220;9.884;2023-07-13T07:55:32;100679.50;;;19.82;64.17
16690;BME280;8458;52.220;9.884;2023-07-13T07:57:59;100687.78;;;19.87;63.39
16690;BME280;8458;52.220;9.884;2023-07-13T08:00:25;100689.44;;;19.88;63.77
16690;BME280;8458;52.220;9.884;2023-07-13T08:02:53;100691.25;;;19.84;63.08
16690;BME280;8458;52.220;9.884;2023-07-13T08:05:19;100694.41;;;19.92;63.73
16690;BME280;8458;52.220;9.884;2023-07-13T08:07:46;100687.97;;;20.00;64.06
16690;BME280;8458;52.220;9.884;2023-07-13T08:10:12;100685.50;;;20.07;63.57
16690;BME280;8458;52.220;9.884;2023-07-13T08:12:40;100687.31;;;20.12;63.84
16690;BME280;8458;52.220;9.884;2023-07-13T08:15:16;100691.78;;;20.21;63.76
16690;BME280;8458;52.220;9.884;2023-07-13T08:17:43;100688.84;;;20.27;64.02
16690;BME280;8458;52.220;9.884;2023-07-13T08:20:10;100687.81;;;20.40;63.54
16690;BME280;8458;52.220;9.884;2023-07-13T08:22:36;100697.75;;;20.46;62.61
16690;BME280;8458;52.220;9.884;2023-07-13T08:25:03;100687.50;;;20.50;62.01
16690;BME280;8458;52.220;9.884;2023-07-13T08:27:30;100680.88;;;20.55;61.84
16690;BME280;8458;52.220;9.884;2023-07-13T08:29:58;100690.16;;;20.64;61.92
16690;BME280;8458;52.220;9.884;2023-07-13T08:32:24;100688.34;;;20.68;61.26
16690;BME280;8458;52.220;9.884;2023-07-13T08:34:51;100699.09;;;20.75;60.93
16690;BME280;8458;52.220;9.884;2023-07-13T08:37:19;100692.28;;;20.85;60.06
16690;BME280;8458;52.220;9.884;2023-07-13T08:39:46;100701.75;;;20.80;61.53
16690;BME280;8458;52.220;9.884;2023-07-13T08:42:22;100697.94;;;20.85;61.38
16690;BME280;8458;52.220;9.884;2023-07-13T08:45:00;100697.25;;;20.97;60.09
16690;BME280;8458;52.220;9.884;2023-07-13T08:47:31;100697.56;;;21.04;61.36
16690;BME280;8458;52.220;9.884;2023-07-13T08:50:02;100696.84;;;21.16;60.13
16690;BME280;8458;52.220;9.884;2023-07-13T08:52:32;100707.44;;;21.27;60.38
16690;BME280;8458;52.220;9.884;2023-07-13T08:55:05;100693.94;;;21.42;60.28
16690;BME280;8458;52.220;9.884;2023-07-13T08:57:35;100688.91;;;21.56;60.35
16690;BME280;8458;52.220;9.884;2023-07-13T09:00:03;100699.50;;;21.68;60.33
16690;BME280;8458;52.220;9.884;2023-07-13T09:02:41;100703.56;;;21.79;57.64
16690;BME280;8458;52.220;9.884;2023-07-13T09:05:11;100705.22;;;21.80;57.23
16690;BME280;8458;52.220;9.884;2023-07-13T09:07:47;100712.28;;;21.95;57.43
16690;BME280;8458;52.220;9.884;2023-07-13T09:10:21;100703.22;;;22.11;56.93
16690;BME280;8458;52.220;9.884;2023-07-13T09:13:00;100710.66;;;22.15;57.58
16690;BME280;8458;52.220;9.884;2023-07-13T09:15:34;100709.25;;;22.30;57.02
16690;BME280;8458;52.220;9.884;2023-07-13T09:18:04;100712.56;;;22.32;56.77
16690;BME280;8458;52.220;9.884;2023-07-13T09:20:35;100713.84;;;22.35;57.49
16690;BME280;8458;52.220;9.884;2023-07-13T09:23:09;100724.22;;;22.22;57.53
16690;BME280;8458;52.220;9.884;2023-07-13T09:25:40;100715.06;;;22.25;58.06
16690;BME280;8458;52.220;9.884;2023-07-13T09:28:12;100715.53;;;22.27;57.19
16690;BME280;8458;52.220;9.884;2023-07-13T09:30:46;100721.31;;;22.10;56.35
16690;BME280;8458;52.220;9.884;2023-07-13T09:33:16;100715.06;;;22.25;58.52
16690;BME280;8458;52.220;9.884;2023-07-13T09:35:44;100721.06;;;22.24;56.74
16690;BME280;8458;52.220;9.884;2023-07-13T09:38:12;100727.53;;;22.24;57.47
16690;BME280;8458;52.220;9.884;2023-07-13T09:40:44;100715.53;;;22.27;57.82
16690;BME280;8458;52.220;9.884;2023-07-13T09:43:15;100721.50;;;22.34;56.17
16690;BME280;8458;52.220;9.884;2023-07-13T09:45:45;100719.56;;;22.26;58.08
16690;BME280;8458;52.220;9.884;2023-07-13T09:48:14;100717.78;;;22.43;58.24
16690;BME280;8458;52.220;9.884;2023-07-13T09:50:42;100704.88;;;22.54;57.26
16690;BME280;8458;52.220;9.884;2023-07-13T09:53:12;100707.66;;;22.63;56.06
16690;BME280;8458;52.220;9.884;2023-07-13T09:55:39;100707.47;;;22.80;56.81
16690;BME280;8458;52.220;9.884;2023-07-13T09:58:11;100707.66;;;22.96;56.25
16690;BME280;8458;52.220;9.884;2023-07-13T10:00:39;100704.09;;;23.20;56.17
16690;BME280;8458;52.220;9.884;2023-07-13T10:03:17;100700.00;;;23.42;54.85
16690;BME280;8458;52.220;9.884;2023-07-13T10:05:47;100713.22;;;23.51;52.48
16690;BME280;8458;52.220;9.884;2023-07-13T10:08:23;100700.03;;;23.67;53.62
16690;BME280;8458;52.220;9.884;2023-07-13T10:10:52;100708.97;;;23.81;53.03
16690;BME280;8458;52.220;9.884;2023-07-13T10:13:33;100702.47;;;23.81;51.95
16690;BME280;8458;52.220;9.884;2023-07-13T10:16:02;100706.84;;;23.78;51.39
16690;BME280;8458;52.220;9.884;2023-07-13T10:18:38;100703.91;;;23.87;52.44
16690;BME280;8458;52.220;9.884;2023-07-13T10:21:11;100708.03;;;23.65;52.04
16690;BME280;8458;52.220;9.884;2023-07-13T10:23:39;100703.22;;;23.66;51.77
16690;BME280;8458;52.220;9.884;2023-07-13T10:26:12;100707.09;;;23.61;52.68
16690;BME280;8458;52.220;9.884;2023-07-13T10:28:42;100707.56;;;23.63;50.84
16690;BME280;8458;52.220;9.884;2023-07-13T10:31:14;100704.94;;;23.83;52.30
16690;BME280;8458;52.220;9.884;2023-07-13T10:33:43;100718.41;;;23.98;51.39
16690;BME280;8458;52.220;9.884;2023-07-13T10:36:15;100720.31;;;23.94;50.79
16690;BME280;8458;52.220;9.884;2023-07-13T10:38:43;100707.69;;;24.04;51.38
16690;BME280;8458;52.220;9.884;2023-07-13T10:41:11;100714.41;;;24.11;49.29
16690;BME280;8458;52.220;9.884;2023-07-13T10:43:43;100709.16;;;24.26;50.00
16690;BME280;8458;52.220;9.884;2023-07-13T10:46:11;100704.66;;;24.37;50.34
16690;BME280;8458;52.220;9.884;2023-07-13T10:48:40;100704.78;;;24.41;49.61
16690;BME280;8458;52.220;9.884;2023-07-13T10:51:10;100715.25;;;24.52;49.10
16690;BME280;8458;52.220;9.884;2023-07-13T10:53:38;100711.69;;;24.56;48.18
16690;BME280;8458;52.220;9.884;2023-07-13T10:56:19;100712.63;;;24.60;48.44
16690;BME280;8458;52.220;9.884;2023-07-13T10:59:01;100720.81;;;24.90;48.56
16690;BME280;8458;52.220;9.884;2023-07-13T11:01:39;100707.75;;;25.01;47.78
16690;BME280;8458;52.220;9.884;2023-07-13T11:04:12;100713.59;;;25.08;47.62
16690;BME280;8458;52.220;9.884;2023-07-13T11:06:42;100718.75;;;25.18;46.97
16690;BME280;8458;52.220;9.884;2023-07-13T11:09:33;100724.13;;;25.23;47.01
16690;BME280;8458;52.220;9.884;2023-07-13T11:12:06;100722.00;;;25.04;47.42
16690;BME280;8458;52.220;9.884;2023-07-13T11:14:35;100718.00;;;25.05;47.37
16690;BME280;8458;52.220;9.884;2023-07-13T11:17:29;100714.53;;;25.12;46.46
16690;BME280;8458;52.220;9.884;2023-07-13T11:20:09;100715.78;;;24.99;46.17
16690;BME280;8458;52.220;9.884;2023-07-13T11:22:43;100715.25;;;25.09;47.13
16690;BME280;8458;52.220;9.884;2023-07-13T11:25:28;100706.22;;;25.19;47.01
16690;BME280;8458;52.220;9.884;2023-07-13T11:28:13;100709.09;;;25.35;46.92
16690;BME280;8458;52.220;9.884;2023-07-13T11:30:43;100702.16;;;25.20;45.50
16690;BME280;8458;52.220;9.884;2023-07-13T11:33:15;100712.84;;;25.11;45.72
16690;BME280;8458;52.220;9.884;2023-07-13T11:35:48;100713.84;;;24.87;45.49
16690;BME280;8458;52.220;9.884;2023-07-13T11:38:19;100708.84;;;24.68;46.12
16690;BME280;8458;52.220;9.884;2023-07-13T11:40:47;100713.13;;;24.62;47.31
16690;BME280;8458;52.220;9.884;2023-07-13T11:43:15;100706.69;;;24.77;47.73
16690;BME280;8458;52.220;9.884;2023-07-13T11:45:43;100711.16;;;24.78;46.77
16690;BME280;8458;52.220;9.884;2023-07-13T11:48:23;100707.41;;;24.74;46.50
16690;BME280;8458;52.220;9.884;2023-07-13T11:51:02;100703.44;;;25.07;47.35
16690;BME280;8458;52.220;9.884;2023-07-13T11:53:43;100707.06;;;25.36;45.81
16690;BME280;8458;52.220;9.884;2023-07-13T11:56:11;100724.13;;;25.23;44.98
16690;BME280;8458;52.220;9.884;2023-07-13T11:58:38;100707.38;;;25.02;44.97
16690;BME280;8458;52.220;9.884;2023-07-13T12:01:06;100698.84;;;24.86;46.55
16690;BME280;8458;52.220;9.884;2023-07-13T12:03:34;100701.00;;;24.77;46.35
16690;BME280;8458;52.220;9.884;2023-07-13T12:06:03;100702.97;;;24.61;46.25
16690;BME280;8458;52.220;9.884;2023-07-13T12:08:37;100702.28;;;24.39;46.55
16690;BME280;8458;52.220;9.884;2023-07-13T12:11:13;100702.38;;;24.43;46.83
16690;BME280;8458;52.220;9.884;2023-07-13T12:13:41;100690.66;;;24.57;44.77
16690;BME280;8458;52.220;9.884;2023-07-13T12:16:14;100701.44;;;24.63;43.95
16690;BME280;8458;52.220;9.884;2023-07-13T12:18:42;100689.97;;;24.88;45.10
16690;BME280;8458;52.220;9.884;2023-07-13T12:21:13;100699.50;;;24.96;45.86
16690;BME280;8458;52.220;9.884;2023-07-13T12:23:43;100704.50;;;24.86;46.81
16690;BME280;8458;52.220;9.884;2023-07-13T12:26:11;100696.25;;;24.81;46.98
16690;BME280;8458;52.220;9.884;2023-07-13T12:28:43;100701.00;;;24.77;46.71
16690;BME280;8458;52.220;9.884;2023-07-13T12:31:24;100701.00;;;24.77;46.12
16690;BME280;8458;52.220;9.884;2023-07-13T12:33:56;100696.19;;;24.94;46.88
16690;BME280;8458;52.220;9.884;2023-07-13T12:36:23;100699.59;;;25.15;45.43
16690;BME280;8458;52.220;9.884;2023-07-13T12:38:51;100705.56;;;25.26;46.50
16690;BME280;8458;52.220;9.884;2023-07-13T12:41:18;100696.91;;;25.35;46.35
16690;BME280;8458;52.220;9.884;2023-07-13T12:43:46;100714.03;;;25.54;45.56
16690;BME280;8458;52.220;9.884;2023-07-13T12:46:18;100698.38;;;25.61;43.67
16690;BME280;8458;52.220;9.884;2023-07-13T12:48:48;100696.53;;;25.84;43.10
16690;BME280;8458;52.220;9.884;2023-07-13T12:51:15;100689.81;;;25.92;43.44
16690;BME280;8458;52.220;9.884;2023-07-13T12:53:43;100695.69;;;26.00;42.33
16690;BME280;8458;52.220;9.884;2023-07-13T12:56:18;100697.59;;;25.95;42.17
16690;BME280;8458;52.220;9.884;2023-07-13T12:58:47;100707.78;;;25.81;43.88
16690;BME280;8458;52.220;9.884;2023-07-13T13:01:20;100700.09;;;25.65;43.54
16690;BME280;8458;52.220;9.884;2023-07-13T13:03:48;100701.09;;;25.73;43.66
16690;BME280;8458;52.220;9.884;2023-07-13T13:06:24;100702.75;;;25.74;44.89
16690;BME280;8458;52.220;9.884;2023-07-13T13:08:53;100697.75;;;25.67;44.56